createdAt,value
2022-11-13T00:01:48.379Z,19.27
2022-11-13T00:04:36.103Z,17.67
2022-11-13T00:07:23.777Z,18.47
2022-11-13T00:10:11.630Z,18.27
2022-11-13T00:12:59.961Z,18.93
2022-11-13T00:15:58.348Z,18.47
2022-11-13T00:18:46.299Z,19.93
2022-11-13T00:21:34.346Z,20.10
2022-11-13T00:24:22.326Z,18.73
2022-11-13T00:27:10.459Z,20.37
2022-11-13T00:29:58.155Z,18.30
2022-11-13T00:32:47.437Z,18.90
2022-11-13T00:35:35.534Z,17.67
2022-11-13T00:38:23.704Z,19.30
2022-11-13T00:41:11.263Z,17.73
2022-11-13T00:44:00.358Z,17.00
2022-11-13T00:46:48.065Z,16.63
2022-11-13T00:49:37.024Z,16.23
2022-11-13T00:52:25.229Z,16.80
2022-11-13T00:55:13.030Z,18.20
2022-11-13T00:58:00.905Z,16.60
2022-11-13T01:00:49.648Z,17.17
2022-11-13T01:03:37.425Z,15.30
2022-11-13T01:06:27.751Z,15.17
2022-11-13T01:09:17.075Z,14.73
2022-11-13T01:12:04.980Z,15.50
2022-11-13T01:14:52.928Z,16.10
2022-11-13T01:17:40.730Z,15.37
2022-11-13T01:20:28.355Z,15.97
2022-11-13T01:23:17.549Z,15.13
2022-11-13T01:26:09.817Z,15.13
2022-11-13T01:29:00.371Z,16.10
2022-11-13T01:31:48.446Z,17.37
2022-11-13T01:34:36.245Z,16.00
2022-11-13T01:37:23.930Z,16.70
2022-11-13T01:40:14.986Z,14.80
2022-11-13T01:43:14.696Z,15.87
2022-11-13T01:46:16.304Z,15.77
2022-11-13T01:49:06.857Z,17.07
2022-11-13T01:51:57.164Z,20.03
2022-11-13T01:54:46.227Z,18.80
2022-11-13T01:57:35.367Z,20.30
2022-11-13T02:00:23.229Z,19.27
2022-11-13T02:03:10.933Z,25.37
2022-11-13T02:05:58.911Z,20.20
2022-11-13T02:08:46.984Z,19.73
2022-11-13T02:11:34.583Z,17.60
2022-11-13T02:14:25.575Z,20.50
2022-11-13T02:17:15.437Z,18.00
2022-11-13T02:20:04.603Z,21.63
2022-11-13T02:22:54.566Z,23.43
2022-11-13T02:25:44.301Z,19.60
2022-11-13T02:28:31.967Z,22.20
2022-11-13T02:31:20.042Z,21.50
2022-11-13T02:34:07.881Z,20.37
2022-11-13T02:36:55.586Z,19.90
2022-11-13T02:39:43.376Z,21.17
2022-11-13T02:42:32.803Z,20.30
2022-11-13T02:45:20.483Z,20.67
2022-11-13T02:48:08.754Z,21.47
2022-11-13T02:50:56.906Z,21.43
2022-11-13T02:53:44.744Z,20.37
2022-11-13T02:56:32.502Z,20.57
2022-11-13T02:59:21.826Z,20.80
2022-11-13T03:02:09.583Z,23.33
2022-11-13T03:05:13.791Z,21.23
2022-11-13T03:08:02.103Z,22.03
2022-11-13T03:10:50.075Z,23.03
2022-11-13T03:13:37.959Z,23.43
2022-11-13T03:16:27.206Z,24.03
2022-11-13T03:19:15.206Z,24.03
2022-11-13T03:22:03.051Z,22.87
2022-11-13T03:24:50.804Z,24.80
2022-11-13T03:27:38.783Z,23.27
2022-11-13T03:30:26.242Z,23.50
2022-11-13T03:33:15.716Z,23.43
2022-11-13T03:36:03.599Z,22.00
2022-11-13T03:38:51.173Z,22.10
2022-11-13T03:41:39.023Z,21.53
2022-11-13T03:44:26.470Z,23.27
2022-11-13T03:47:14.068Z,23.83
2022-11-13T03:50:03.426Z,23.30
2022-11-13T03:52:50.971Z,21.70
2022-11-13T03:55:38.547Z,23.27
2022-11-13T03:58:26.407Z,22.40
2022-11-13T04:01:14.384Z,23.07
2022-11-13T04:04:02.301Z,23.23
2022-11-13T04:06:51.712Z,23.27
2022-11-13T04:09:39.417Z,22.40
2022-11-13T04:12:26.987Z,22.10
2022-11-13T04:15:14.505Z,21.83
2022-11-13T04:18:02.238Z,23.60
2022-11-13T04:20:49.943Z,22.73
2022-11-13T04:23:38.791Z,20.90
2022-11-13T04:26:26.355Z,23.13
2022-11-13T04:29:13.883Z,20.87
2022-11-13T04:32:01.915Z,21.03
2022-11-13T04:34:49.867Z,21.17
2022-11-13T04:37:37.391Z,22.00
2022-11-13T04:40:26.387Z,21.20
2022-11-13T04:43:13.054Z,24.90
2022-11-13T04:46:00.608Z,23.40
2022-11-13T04:48:48.079Z,22.47
2022-11-13T04:51:35.784Z,21.23
2022-11-13T04:54:28.547Z,18.13
2022-11-13T04:57:18.122Z,16.10
2022-11-13T05:00:06.870Z,16.97
2022-11-13T05:02:54.400Z,14.53
2022-11-13T05:05:41.942Z,14.20
2022-11-13T05:08:29.935Z,15.87
2022-11-13T05:11:17.674Z,13.90
2022-11-13T05:14:08.191Z,14.43
2022-11-13T05:16:55.919Z,14.67
2022-11-13T05:19:43.525Z,14.13
2022-11-13T05:22:31.787Z,12.70
2022-11-13T05:25:19.681Z,12.73
2022-11-13T05:28:07.621Z,14.50
2022-11-13T05:30:56.565Z,13.67
2022-11-13T05:33:45.131Z,13.93
2022-11-13T05:36:33.400Z,14.03
2022-11-13T05:39:21.129Z,15.00
2022-11-13T05:42:08.782Z,15.53
2022-11-13T05:44:56.467Z,15.80
2022-11-13T05:47:45.782Z,17.50
2022-11-13T05:50:33.468Z,14.37
2022-11-13T05:53:21.553Z,14.20
2022-11-13T05:56:10.795Z,15.30
2022-11-13T05:58:59.155Z,16.30
2022-11-13T06:01:47.156Z,15.47
2022-11-13T06:04:36.622Z,16.50
2022-11-13T06:07:24.344Z,16.40
2022-11-13T06:10:13.368Z,16.27
2022-11-13T06:13:01.037Z,16.80
2022-11-13T06:15:48.680Z,15.30
2022-11-13T06:18:36.648Z,13.83
2022-11-13T06:21:26.686Z,14.50
2022-11-13T06:24:14.766Z,13.33
2022-11-13T06:27:02.134Z,12.77
2022-11-13T06:29:49.944Z,13.63
2022-11-13T06:32:37.751Z,13.90
2022-11-13T06:35:25.609Z,14.70
2022-11-13T06:38:15.128Z,14.13
2022-11-13T06:41:03.621Z,13.30
2022-11-13T06:43:51.928Z,14.80
2022-11-13T06:46:39.915Z,14.93
2022-11-13T06:49:27.635Z,12.63
2022-11-13T06:52:15.538Z,12.10
2022-11-13T06:55:05.074Z,12.17
2022-11-13T06:57:53.120Z,11.87
2022-11-13T07:00:41.189Z,14.20
2022-11-13T07:03:29.084Z,14.57
2022-11-13T07:06:18.286Z,13.47
2022-11-13T07:09:06.329Z,14.87
2022-11-13T07:11:55.298Z,15.70
2022-11-13T07:14:43.366Z,12.97
2022-11-13T07:17:31.063Z,13.87
2022-11-13T07:20:19.210Z,14.33
2022-11-13T07:23:07.244Z,13.73
2022-11-13T07:25:56.248Z,15.33
2022-11-13T07:28:45.417Z,14.13
2022-11-13T07:31:33.035Z,15.10
2022-11-13T07:34:21.189Z,16.50
2022-11-13T07:37:08.933Z,13.47
2022-11-13T07:39:57.690Z,12.23
2022-11-13T07:42:45.525Z,12.40
2022-11-13T07:45:34.262Z,28.47
2022-11-13T07:48:22.822Z,14.77
2022-11-13T07:51:10.706Z,13.70
2022-11-13T07:53:58.285Z,14.70
2022-11-13T07:56:47.525Z,15.17
2022-11-13T07:59:35.496Z,15.07
2022-11-13T08:02:26.705Z,14.73
2022-11-13T08:05:14.635Z,14.57
2022-11-13T08:08:02.184Z,13.83
2022-11-13T08:10:49.770Z,14.90
2022-11-13T08:13:38.278Z,16.60
2022-11-13T08:16:26.174Z,17.73
2022-11-13T08:19:15.186Z,17.37
2022-11-13T08:22:02.871Z,15.73
2022-11-13T08:24:53.751Z,17.60
2022-11-13T08:27:41.697Z,18.17
2022-11-13T08:30:30.012Z,18.17
2022-11-13T08:33:17.609Z,19.17
2022-11-13T08:36:07.360Z,16.53
2022-11-13T08:38:55.095Z,16.87
2022-11-13T08:41:42.985Z,18.37
2022-11-13T08:44:30.732Z,17.60
2022-11-13T08:47:18.607Z,14.03
2022-11-13T08:50:06.897Z,13.90
2022-11-13T08:52:57.558Z,15.90
2022-11-13T08:55:45.714Z,12.90
2022-11-13T08:58:33.354Z,10.43
2022-11-13T09:01:23.108Z,11.80
2022-11-13T09:04:11.090Z,13.43
2022-11-13T09:06:59.591Z,13.00
2022-11-13T09:09:49.314Z,12.20
2022-11-13T09:12:37.204Z,10.03
2022-11-13T09:15:24.937Z,12.13
2022-11-13T09:18:12.830Z,9.23
2022-11-13T09:21:03.092Z,8.47
2022-11-13T09:23:50.986Z,16.63
2022-11-13T09:26:40.041Z,16.43
2022-11-13T09:29:28.854Z,17.30
2022-11-13T09:32:17.669Z,17.30
2022-11-13T09:35:05.678Z,19.40
2022-11-13T09:37:54.056Z,14.50
2022-11-13T09:40:44.196Z,16.37
2022-11-13T09:43:37.401Z,12.37
2022-11-13T09:46:35.509Z,13.70
2022-11-13T09:49:28.098Z,13.90
2022-11-13T09:52:17.382Z,11.83
2022-11-13T09:55:05.226Z,13.63
2022-11-13T09:57:55.279Z,14.03
2022-11-13T10:00:44.404Z,14.73
2022-11-13T10:06:48.023Z,10.20
2022-11-13T10:09:39.427Z,13.00
2022-11-13T10:12:29.075Z,12.17
2022-11-13T10:15:18.758Z,15.30
2022-11-13T10:18:12.549Z,14.87
2022-11-13T10:21:09.692Z,13.00
2022-11-13T10:23:58.049Z,12.70
2022-11-13T10:26:45.791Z,13.53
2022-11-13T10:29:33.744Z,15.23
2022-11-13T10:32:23.290Z,13.63
2022-11-13T10:35:25.060Z,11.60
2022-11-13T10:38:16.586Z,13.40
2022-11-13T10:41:09.054Z,11.67
2022-11-13T10:43:57.766Z,11.50
2022-11-13T10:46:45.502Z,11.27
2022-11-13T10:49:33.475Z,12.13
2022-11-13T10:52:23.813Z,12.83
2022-11-13T10:55:18.086Z,14.23
2022-11-13T10:58:14.330Z,13.90
2022-11-13T11:01:02.132Z,11.67
2022-11-13T11:03:52.705Z,12.13
2022-11-13T11:07:17.928Z,11.10
2022-11-13T11:09:52.343Z,11.10
2022-11-13T11:12:39.891Z,8.60
2022-11-13T11:15:29.912Z,10.30
2022-11-13T11:18:23.623Z,8.93
2022-11-13T11:21:13.300Z,9.47
2022-11-13T11:24:02.958Z,8.17
2022-11-13T11:26:55.579Z,9.07
2022-11-13T11:29:44.886Z,9.43
2022-11-13T11:32:35.827Z,8.07
2022-11-13T11:35:25.268Z,8.40
2022-11-13T11:38:16.169Z,9.13
2022-11-13T11:41:13.341Z,8.87
2022-11-13T11:44:07.555Z,8.63
2022-11-13T11:46:56.346Z,10.30
2022-11-13T11:49:44.959Z,12.37
2022-11-13T11:52:44.938Z,11.13
2022-11-13T11:55:37.902Z,11.27
2022-11-13T11:58:32.228Z,10.77
2022-11-13T12:01:26.165Z,11.17
2022-11-13T12:04:26.697Z,13.37
2022-11-13T12:07:20.201Z,15.43
2022-11-13T12:10:12.025Z,13.87
2022-11-13T12:13:07.564Z,13.57
2022-11-13T12:15:59.582Z,12.33
2022-11-13T12:18:52.353Z,11.50
2022-11-13T12:21:46.773Z,13.40
2022-11-13T12:24:47.656Z,15.27
2022-11-13T12:27:37.700Z,13.10
2022-11-13T12:30:29.357Z,14.50
2022-11-13T12:33:23.406Z,13.93
2022-11-13T12:36:14.684Z,16.13
2022-11-13T12:39:05.237Z,15.77
2022-11-13T12:41:56.671Z,14.80
2022-11-13T12:44:49.549Z,15.90
2022-11-13T12:47:38.186Z,15.60
2022-11-13T12:50:32.159Z,14.53
2022-11-13T12:53:28.381Z,13.57
2022-11-13T12:56:18.120Z,13.13
2022-11-13T12:59:29.783Z,13.57
2022-11-13T13:02:32.016Z,12.40
2022-11-13T13:05:26.010Z,13.30
2022-11-13T13:08:21.456Z,11.93
2022-11-13T13:11:15.403Z,11.80
2022-11-13T13:14:13.056Z,12.23
2022-11-13T13:17:07.757Z,12.90
2022-11-13T13:20:02.046Z,12.70
2022-11-13T13:22:57.708Z,11.20
2022-11-13T13:25:45.543Z,13.33
2022-11-13T13:28:34.953Z,12.67
2022-11-13T13:31:25.672Z,13.17
2022-11-13T13:34:22.098Z,12.13
2022-11-13T13:37:14.395Z,13.30
2022-11-13T13:40:05.612Z,12.47
2022-11-13T13:42:58.770Z,12.80
2022-11-13T13:45:52.584Z,10.93
2022-11-13T13:48:41.738Z,11.60
2022-11-13T13:51:31.314Z,11.83
2022-11-13T13:54:20.808Z,13.70
2022-11-13T13:57:13.332Z,12.00
2022-11-13T14:00:01.302Z,17.47
2022-11-13T14:02:51.531Z,19.40
2022-11-13T14:05:39.648Z,20.03
2022-11-13T14:08:28.123Z,20.60
2022-11-13T14:11:20.495Z,19.17
2022-11-13T14:14:11.641Z,19.23
2022-11-13T14:17:00.694Z,16.13
2022-11-13T14:19:53.125Z,16.13
2022-11-13T14:22:41.700Z,17.90
2022-11-13T14:25:30.381Z,15.70
2022-11-13T14:28:19.341Z,14.67
2022-11-13T14:31:07.576Z,16.63
2022-11-13T14:33:55.412Z,17.97
2022-11-13T14:36:45.056Z,17.53
2022-11-13T14:39:34.660Z,17.53
2022-11-13T14:42:24.121Z,20.70
2022-11-13T14:45:16.515Z,19.20
2022-11-13T14:48:05.878Z,22.57
2022-11-13T14:50:54.366Z,22.20
2022-11-13T14:53:44.283Z,18.73
2022-11-13T14:56:35.974Z,18.50
2022-11-13T14:59:28.348Z,17.60
2022-11-13T15:02:16.375Z,18.43
2022-11-13T15:05:04.758Z,19.00
2022-11-13T15:07:52.772Z,19.17
2022-11-13T15:10:42.036Z,17.67
2022-11-13T15:13:29.739Z,19.97
2022-11-13T15:16:18.351Z,20.97
2022-11-13T15:19:07.211Z,16.70
2022-11-13T15:22:25.438Z,16.83
2022-11-13T15:25:03.192Z,15.83
2022-11-13T15:27:52.564Z,16.17
2022-11-13T15:30:40.058Z,15.83
2022-11-13T15:33:28.820Z,14.63
2022-11-13T15:36:17.000Z,15.13
2022-11-13T15:39:06.430Z,14.10
2022-11-13T15:46:04.281Z,15.40
2022-11-13T15:52:39.376Z,14.70
2022-11-13T15:55:28.655Z,13.50
2022-11-13T15:58:17.094Z,15.50
2022-11-13T16:01:06.505Z,15.53
2022-11-13T16:03:54.059Z,15.43
2022-11-13T16:06:42.534Z,14.63
2022-11-13T16:09:30.162Z,16.40
2022-11-13T16:12:17.955Z,15.80
2022-11-13T16:15:06.118Z,14.20
2022-11-13T16:17:56.631Z,13.67
2022-11-13T16:20:44.371Z,13.50
2022-11-13T16:23:32.406Z,12.17
2022-11-13T16:26:21.331Z,58.20
2022-11-13T16:29:16.326Z,13.97
2022-11-13T16:32:04.200Z,13.80
2022-11-13T16:34:53.475Z,11.00
2022-11-13T16:37:41.325Z,11.97
2022-11-13T16:40:29.682Z,13.17
2022-11-13T16:43:17.912Z,13.33
2022-11-13T16:46:14.238Z,12.90
2022-11-13T16:49:02.367Z,10.77
2022-11-13T16:51:52.218Z,9.70
2022-11-13T16:54:39.988Z,10.77
2022-11-13T16:57:28.385Z,9.83
2022-11-13T17:00:17.463Z,11.80
2022-11-13T17:03:05.018Z,10.70
2022-11-13T17:05:53.888Z,11.07
2022-11-13T17:08:43.107Z,10.87
2022-11-13T17:11:31.590Z,12.00
2022-11-13T17:14:19.197Z,11.67
2022-11-13T17:17:07.585Z,11.37
2022-11-13T17:19:55.672Z,11.13
2022-11-13T17:22:48.574Z,11.30
2022-11-13T17:25:37.768Z,14.03
2022-11-13T17:28:25.285Z,11.30
2022-11-13T17:31:13.906Z,11.40
2022-11-13T17:34:01.651Z,11.90
2022-11-13T17:36:49.493Z,12.10
2022-11-13T17:39:37.333Z,11.60
2022-11-13T17:42:28.252Z,12.60
2022-11-13T17:45:16.290Z,13.53
2022-11-13T17:48:04.863Z,10.90
2022-11-13T17:50:58.669Z,13.13
2022-11-13T17:53:46.747Z,14.53
2022-11-13T17:56:35.611Z,12.97
2022-11-13T17:59:25.066Z,11.73
2022-11-13T18:02:13.637Z,10.70
2022-11-13T18:05:04.323Z,13.37
2022-11-13T18:07:52.261Z,14.50
2022-11-13T18:10:40.197Z,12.60
2022-11-13T18:13:28.481Z,11.63
2022-11-13T18:16:20.235Z,13.50
2022-11-13T18:19:09.518Z,12.80
2022-11-13T18:21:57.659Z,9.80
2022-11-13T18:24:45.781Z,11.40
2022-11-13T18:27:33.623Z,11.57
2022-11-13T18:30:21.331Z,12.87
2022-11-13T18:33:10.742Z,10.67
2022-11-13T18:35:58.492Z,10.77
2022-11-13T18:38:46.642Z,11.17
2022-11-13T18:41:34.482Z,10.53
2022-11-13T18:44:22.223Z,10.20
2022-11-13T18:47:10.182Z,10.90
2022-11-13T18:49:59.710Z,9.70
2022-11-13T18:52:47.922Z,9.27
2022-11-13T18:55:35.586Z,9.80
2022-11-13T18:58:23.462Z,11.00
2022-11-13T19:01:15.161Z,9.50
2022-11-13T19:04:24.382Z,8.83
2022-11-13T19:07:13.700Z,11.80
2022-11-13T19:10:01.218Z,7.80
2022-11-13T19:12:49.354Z,10.00
2022-11-13T19:15:38.586Z,7.70
2022-11-13T19:18:26.519Z,9.50
2022-11-13T19:21:15.993Z,8.63
2022-11-13T19:24:06.082Z,9.40
2022-11-13T19:26:54.057Z,13.80
2022-11-13T19:29:42.548Z,10.97
2022-11-13T19:32:31.493Z,11.97
2022-11-13T19:35:19.265Z,10.90
2022-11-13T19:38:07.025Z,12.70
2022-11-13T19:40:56.062Z,10.23
2022-11-13T19:43:45.102Z,9.87
2022-11-13T19:46:34.270Z,9.70
2022-11-13T19:49:21.764Z,9.30
2022-11-13T19:52:09.610Z,9.20
2022-11-13T19:54:58.057Z,10.83
2022-11-13T19:57:47.577Z,10.97
2022-11-13T20:00:35.613Z,9.47
2022-11-13T20:03:24.642Z,10.57
2022-11-13T20:06:12.826Z,9.80
2022-11-13T20:09:00.467Z,9.17
2022-11-13T20:11:48.551Z,10.20
2022-11-13T20:14:38.689Z,10.13
2022-11-13T20:17:26.669Z,9.63
2022-11-13T20:20:14.317Z,41.43
2022-11-13T20:23:02.368Z,12.33
2022-11-13T20:25:53.782Z,16.50
2022-11-13T20:28:41.793Z,11.03
2022-11-13T20:31:30.792Z,11.77
2022-11-13T20:34:18.408Z,12.93
2022-11-13T20:37:06.341Z,15.17
2022-11-13T20:39:54.474Z,9.80
2022-11-13T20:42:41.913Z,11.50
2022-11-13T20:45:29.572Z,22.13
2022-11-13T20:48:18.434Z,19.80
2022-11-13T20:51:10.358Z,14.17
2022-11-13T20:53:58.159Z,16.10
2022-11-13T20:56:46.303Z,14.00
2022-11-13T20:59:34.002Z,18.40
2022-11-13T21:02:21.894Z,18.83
2022-11-13T21:05:11.450Z,13.17
2022-11-13T21:07:58.998Z,13.20
2022-11-13T21:10:46.572Z,11.50
2022-11-13T21:13:34.536Z,14.73
2022-11-13T21:16:22.586Z,12.77
2022-11-13T21:19:11.559Z,15.73
2022-11-13T21:22:00.819Z,26.07
2022-11-13T21:24:48.811Z,15.60
2022-11-13T21:27:36.661Z,16.87
2022-11-13T21:30:24.495Z,16.37
2022-11-13T21:33:12.316Z,12.23
2022-11-13T21:36:05.619Z,12.27
2022-11-13T21:38:55.379Z,10.77
2022-11-13T21:41:43.212Z,11.93
2022-11-13T21:44:31.092Z,12.97
2022-11-13T21:47:18.831Z,12.10
2022-11-13T21:50:06.510Z,12.50
2022-11-13T21:52:54.185Z,10.90
2022-11-13T21:55:50.361Z,11.77
2022-11-13T21:58:38.968Z,12.30
2022-11-13T22:01:27.358Z,10.67
2022-11-13T22:04:15.015Z,11.17
2022-11-13T22:07:03.062Z,10.10
2022-11-13T22:09:50.763Z,11.90
2022-11-13T22:12:40.401Z,12.43
2022-11-13T22:15:28.367Z,12.80
2022-11-13T22:18:17.072Z,13.77
2022-11-13T22:21:05.128Z,13.23
2022-11-13T22:23:53.652Z,12.90
2022-11-13T22:26:42.254Z,11.53
2022-11-13T22:29:31.747Z,11.90
2022-11-13T22:32:19.568Z,12.13
2022-11-13T22:35:07.842Z,10.93
2022-11-13T22:37:55.739Z,11.53
2022-11-13T22:40:43.645Z,12.23
2022-11-13T22:43:34.186Z,12.90
2022-11-13T22:46:23.977Z,14.03
2022-11-13T22:49:13.406Z,14.37
2022-11-13T22:52:01.177Z,12.77
2022-11-13T22:54:48.898Z,13.20
2022-11-13T22:57:36.859Z,12.00
2022-11-13T23:00:25.281Z,13.17
2022-11-13T23:03:14.692Z,11.53
2022-11-13T23:06:04.025Z,10.10
2022-11-13T23:08:52.775Z,11.20
2022-11-13T23:11:41.623Z,11.73
2022-11-13T23:14:29.366Z,11.97
2022-11-13T23:17:17.259Z,11.63
2022-11-13T23:20:06.730Z,12.27
2022-11-13T23:22:54.464Z,11.33
2022-11-13T23:25:42.259Z,11.67
2022-11-13T23:28:30.617Z,11.33
2022-11-13T23:31:18.721Z,13.90
2022-11-13T23:34:06.756Z,13.10
2022-11-13T23:36:55.816Z,12.50
2022-11-13T23:39:43.652Z,11.90
2022-11-13T23:42:53.587Z,12.30
2022-11-13T23:45:39.314Z,12.90
2022-11-13T23:48:27.749Z,13.20
2022-11-13T23:51:15.791Z,13.30
2022-11-13T23:54:04.673Z,12.20
2022-11-13T23:56:52.736Z,12.50
2022-11-13T23:59:40.717Z,11.90
